ITY1428 LIMF-LIRF
Flight info
| Callsign | ITY1428 |
|---|---|
| Flight time | 0h 51m |
| Altitude | 33000 |
| Route | LAGEN DCT ELKAP |
| Aircraft | A320/M-SDE3FGHIRWY/LB1 |
Departure
| Time | 2026-05-04 10:00 |
|---|---|
| Airport | Turin Airport (LIMF) |
Arrival
| Time | 2026-05-04 10:51 |
|---|---|
| Airport | Rome–Fiumicino Leonardo da Vinci International Airport (LIRF) |
| Time | Latitude | Longitude | Altitude | Speed | Heading |
|---|---|---|---|---|---|
| 2026-05-04 09:46 | 45.19399 | 7.64459 | 986 ft | 0 kts | 271° |
| 2026-05-04 09:52 | 45.19399 | 7.64470 | 976 ft | 2 kts | 269° |
| 2026-05-04 09:52 | 45.19399 | 7.64488 | 978 ft | 2 kts | 268° |
| 2026-05-04 09:52 | 45.19399 | 7.64504 | 990 ft | 1 kts | 258° |
| 2026-05-04 09:53 | 45.19400 | 7.64512 | 988 ft | 1 kts | 239° |
| 2026-05-04 09:53 | 45.19402 | 7.64520 | 986 ft | 1 kts | 207° |
| 2026-05-04 09:53 | 45.19407 | 7.64523 | 994 ft | 1 kts | 192° |
| 2026-05-04 09:53 | 45.19412 | 7.64525 | 994 ft | 1 kts | 185° |
| 2026-05-04 09:54 | 45.19418 | 7.64526 | 993 ft | 1 kts | 183° |
| 2026-05-04 09:54 | 45.19423 | 7.64526 | 986 ft | 0 kts | 183° |
| 2026-05-04 09:55 | 45.19389 | 7.64540 | 988 ft | 12 kts | 139° |
| 2026-05-04 09:56 | 45.19348 | 7.64656 | 989 ft | 14 kts | 142° |
| 2026-05-04 09:56 | 45.19247 | 7.64667 | 993 ft | 15 kts | 181° |
| 2026-05-04 09:56 | 45.19133 | 7.64660 | 986 ft | 17 kts | 182° |
| 2026-05-04 09:56 | 45.19020 | 7.64653 | 990 ft | 17 kts | 183° |
| 2026-05-04 09:57 | 45.18898 | 7.64645 | 989 ft | 18 kts | 183° |
| 2026-05-04 09:57 | 45.18805 | 7.64657 | 987 ft | 7 kts | 126° |
| 2026-05-04 09:57 | 45.18797 | 7.64700 | 987 ft | 3 kts | 95° |
| 2026-05-04 09:57 | 45.18795 | 7.64731 | 984 ft | 4 kts | 94° |
| 2026-05-04 09:58 | 45.18793 | 7.64777 | 982 ft | 6 kts | 93° |
| 2026-05-04 09:58 | 45.18794 | 7.64842 | 981 ft | 7 kts | 81° |
| 2026-05-04 09:58 | 45.18816 | 7.64879 | 984 ft | 4 kts | 29° |
| 2026-05-04 10:00 | 45.23333 | 7.65155 | 2451 ft | 175 kts | 4° |
| 2026-05-04 10:00 | 45.24627 | 7.65235 | 2760 ft | 197 kts | 3° |
| 2026-05-04 10:02 | 45.25365 | 7.79099 | 7394 ft | 273 kts | 112° |
| 2026-05-04 10:04 | 45.17097 | 7.95793 | 11786 ft | 336 kts | 134° |
| 2026-05-04 10:04 | 45.15374 | 7.98041 | 12469 ft | 338 kts | 147° |
| 2026-05-04 10:04 | 45.13335 | 7.99708 | 13150 ft | 339 kts | 160° |
| 2026-05-04 10:04 | 45.11076 | 8.00716 | 13801 ft | 341 kts | 170° |
| 2026-05-04 10:05 | 45.08749 | 8.01452 | 14444 ft | 345 kts | 170° |
| 2026-05-04 10:05 | 45.06432 | 8.02187 | 15065 ft | 348 kts | 170° |
| 2026-05-04 10:05 | 45.04051 | 8.02948 | 15697 ft | 351 kts | 170° |
| 2026-05-04 10:05 | 45.01660 | 8.03712 | 16306 ft | 354 kts | 169° |
| 2026-05-04 10:06 | 44.99240 | 8.04485 | 16916 ft | 358 kts | 169° |
| 2026-05-04 10:06 | 44.96791 | 8.05266 | 17461 ft | 363 kts | 169° |
| 2026-05-04 10:06 | 44.94312 | 8.06058 | 18046 ft | 367 kts | 169° |
| 2026-05-04 10:08 | 44.79454 | 8.12993 | 21260 ft | 391 kts | 148° |
| 2026-05-04 10:08 | 44.77201 | 8.15100 | 21800 ft | 394 kts | 148° |
| 2026-05-04 10:08 | 44.74903 | 8.17232 | 22328 ft | 397 kts | 149° |
| 2026-05-04 10:08 | 44.72589 | 8.19372 | 22834 ft | 400 kts | 149° |
| 2026-05-04 10:09 | 44.70256 | 8.21522 | 23324 ft | 402 kts | 149° |
| 2026-05-04 10:09 | 44.67905 | 8.23683 | 23772 ft | 405 kts | 149° |
| 2026-05-04 10:09 | 44.65540 | 8.25857 | 24159 ft | 408 kts | 149° |
| 2026-05-04 10:09 | 44.63155 | 8.28051 | 24554 ft | 410 kts | 149° |
| 2026-05-04 10:10 | 44.60761 | 8.30255 | 24930 ft | 413 kts | 149° |
| 2026-05-04 10:10 | 44.58349 | 8.32471 | 25290 ft | 415 kts | 149° |
| 2026-05-04 10:10 | 44.55926 | 8.34693 | 25663 ft | 417 kts | 149° |
| 2026-05-04 10:10 | 44.53493 | 8.36927 | 26036 ft | 419 kts | 149° |
| 2026-05-04 10:11 | 44.51043 | 8.39176 | 26391 ft | 422 kts | 149° |
| 2026-05-04 10:11 | 44.48581 | 8.41433 | 26742 ft | 424 kts | 149° |
| 2026-05-04 10:11 | 44.46101 | 8.43701 | 27097 ft | 426 kts | 149° |
| 2026-05-04 10:11 | 44.43613 | 8.45974 | 27456 ft | 428 kts | 149° |
| 2026-05-04 10:12 | 44.41109 | 8.48263 | 27800 ft | 431 kts | 149° |
| 2026-05-04 10:12 | 44.38701 | 8.50787 | 28144 ft | 436 kts | 141° |
| 2026-05-04 10:12 | 44.36493 | 8.53707 | 28480 ft | 439 kts | 139° |
| 2026-05-04 10:12 | 44.34279 | 8.56659 | 28802 ft | 441 kts | 139° |
| 2026-05-04 10:13 | 44.32054 | 8.59618 | 29112 ft | 443 kts | 139° |
| 2026-05-04 10:13 | 44.29819 | 8.62587 | 29400 ft | 445 kts | 139° |
| 2026-05-04 10:13 | 44.27571 | 8.65568 | 29658 ft | 447 kts | 139° |
| 2026-05-04 10:13 | 44.25311 | 8.68562 | 29928 ft | 449 kts | 139° |
| 2026-05-04 10:14 | 44.23040 | 8.71569 | 30185 ft | 451 kts | 139° |
| 2026-05-04 10:14 | 44.20762 | 8.74583 | 30412 ft | 452 kts | 139° |
| 2026-05-04 10:16 | 44.05439 | 8.94790 | 32027 ft | 457 kts | 139° |
| 2026-05-04 10:16 | 44.03124 | 8.97823 | 32259 ft | 458 kts | 140° |
| 2026-05-04 10:16 | 44.00806 | 9.00859 | 32507 ft | 458 kts | 140° |
| 2026-05-04 10:16 | 43.98485 | 9.03894 | 32770 ft | 458 kts | 140° |
| 2026-05-04 10:17 | 43.96162 | 9.06932 | 33031 ft | 458 kts | 140° |
| 2026-05-04 10:17 | 43.93845 | 9.09960 | 33119 ft | 455 kts | 140° |
| 2026-05-04 10:19 | 43.75548 | 9.33748 | 33132 ft | 452 kts | 140° |
| 2026-05-04 10:19 | 43.70955 | 9.39699 | 33131 ft | 452 kts | 140° |
| 2026-05-04 10:20 | 43.66363 | 9.45623 | 33126 ft | 452 kts | 140° |
| 2026-05-04 10:20 | 43.61806 | 9.51482 | 33119 ft | 451 kts | 140° |
| 2026-05-04 10:21 | 43.57216 | 9.57376 | 33123 ft | 451 kts | 140° |
| 2026-05-04 10:21 | 43.52615 | 9.63271 | 33123 ft | 451 kts | 140° |
| 2026-05-04 10:22 | 43.45703 | 9.72102 | 33133 ft | 451 kts | 140° |
| 2026-05-04 10:23 | 43.41095 | 9.77968 | 33123 ft | 451 kts | 140° |
| 2026-05-04 10:25 | 43.22599 | 10.01419 | 33142 ft | 452 kts | 140° |
| 2026-05-04 10:25 | 43.18006 | 10.07231 | 33129 ft | 452 kts | 140° |
| 2026-05-04 10:26 | 43.13369 | 10.13061 | 33123 ft | 454 kts | 141° |
| 2026-05-04 10:26 | 43.08701 | 10.18900 | 33128 ft | 455 kts | 140° |
| 2026-05-04 10:27 | 43.04030 | 10.24751 | 33139 ft | 454 kts | 140° |
| 2026-05-04 10:27 | 42.99374 | 10.30576 | 32979 ft | 453 kts | 140° |
| 2026-05-04 10:27 | 42.97051 | 10.33478 | 32715 ft | 452 kts | 140° |
| 2026-05-04 10:28 | 42.94729 | 10.36371 | 32450 ft | 453 kts | 140° |
| 2026-05-04 10:28 | 42.92391 | 10.39275 | 32191 ft | 455 kts | 140° |
| 2026-05-04 10:28 | 42.90051 | 10.42181 | 31935 ft | 455 kts | 140° |
| 2026-05-04 10:28 | 42.87717 | 10.45078 | 31674 ft | 452 kts | 140° |
| 2026-05-04 10:29 | 42.85408 | 10.47950 | 31099 ft | 448 kts | 140° |
| 2026-05-04 10:29 | 42.83107 | 10.50812 | 30497 ft | 445 kts | 140° |
| 2026-05-04 10:29 | 42.80856 | 10.53606 | 29862 ft | 442 kts | 140° |
| 2026-05-04 10:29 | 42.78594 | 10.56406 | 29302 ft | 436 kts | 140° |
| 2026-05-04 10:30 | 42.76378 | 10.59142 | 28981 ft | 426 kts | 140° |
| 2026-05-04 10:30 | 42.74187 | 10.61844 | 28408 ft | 422 kts | 140° |
| 2026-05-04 10:30 | 42.72141 | 10.64703 | 27794 ft | 423 kts | 131° |
| 2026-05-04 10:30 | 42.70451 | 10.67984 | 27102 ft | 425 kts | 124° |
| 2026-05-04 10:31 | 42.68898 | 10.71383 | 26672 ft | 419 kts | 124° |
| 2026-05-04 10:31 | 42.67360 | 10.74755 | 26084 ft | 418 kts | 124° |
| 2026-05-04 10:32 | 42.58381 | 10.94349 | 23260 ft | 399 kts | 124° |
| 2026-05-04 10:33 | 42.56903 | 10.97548 | 22745 ft | 397 kts | 124° |
| 2026-05-04 10:33 | 42.55441 | 11.00706 | 22314 ft | 392 kts | 124° |
| 2026-05-04 10:33 | 42.53990 | 11.03841 | 21709 ft | 393 kts | 124° |
| 2026-05-04 10:33 | 42.52543 | 11.06970 | 21294 ft | 389 kts | 124° |
| 2026-05-04 10:34 | 42.51106 | 11.10076 | 20834 ft | 386 kts | 124° |
| 2026-05-04 10:34 | 42.49691 | 11.13126 | 20314 ft | 386 kts | 124° |
| 2026-05-04 10:34 | 42.48268 | 11.16190 | 19816 ft | 385 kts | 124° |
| 2026-05-04 10:34 | 42.46853 | 11.19237 | 19487 ft | 379 kts | 124° |
| 2026-05-04 10:35 | 42.45469 | 11.22216 | 19331 ft | 368 kts | 124° |
| 2026-05-04 10:35 | 42.44123 | 11.25107 | 19179 ft | 358 kts | 124° |
| 2026-05-04 10:35 | 42.42805 | 11.27936 | 18860 ft | 352 kts | 124° |
| 2026-05-04 10:35 | 42.41506 | 11.30718 | 18209 ft | 348 kts | 124° |
| 2026-05-04 10:36 | 42.40222 | 11.33463 | 17553 ft | 342 kts | 125° |
| 2026-05-04 10:36 | 42.38964 | 11.36147 | 17127 ft | 336 kts | 125° |
| 2026-05-04 10:36 | 42.37714 | 11.38808 | 16706 ft | 335 kts | 125° |
| 2026-05-04 10:36 | 42.36467 | 11.41468 | 16351 ft | 333 kts | 125° |
| 2026-05-04 10:37 | 42.35231 | 11.44112 | 15899 ft | 332 kts | 125° |
| 2026-05-04 10:37 | 42.34013 | 11.46718 | 15381 ft | 325 kts | 126° |
| 2026-05-04 10:37 | 42.32816 | 11.49274 | 14959 ft | 320 kts | 126° |
| 2026-05-04 10:37 | 42.31619 | 11.51815 | 14579 ft | 320 kts | 126° |
| 2026-05-04 10:39 | 42.24500 | 11.66917 | 11729 ft | 301 kts | 125° |
| 2026-05-04 10:39 | 42.23424 | 11.69201 | 11486 ft | 284 kts | 125° |
| 2026-05-04 10:39 | 42.22354 | 11.71469 | 11214 ft | 288 kts | 125° |
| 2026-05-04 10:40 | 42.21277 | 11.73747 | 10851 ft | 288 kts | 124° |
| 2026-05-04 10:40 | 42.20226 | 11.76039 | 10482 ft | 287 kts | 123° |
| 2026-05-04 10:40 | 42.19192 | 11.78345 | 10099 ft | 287 kts | 123° |
| 2026-05-04 10:40 | 42.18168 | 11.80650 | 9728 ft | 285 kts | 123° |
| 2026-05-04 10:41 | 42.17155 | 11.82932 | 9333 ft | 283 kts | 123° |
| 2026-05-04 10:41 | 42.16146 | 11.85194 | 8965 ft | 280 kts | 123° |
| 2026-05-04 10:41 | 42.15151 | 11.87414 | 8594 ft | 275 kts | 123° |
| 2026-05-04 10:41 | 42.14160 | 11.89624 | 8235 ft | 274 kts | 123° |
| 2026-05-04 10:42 | 42.13180 | 11.91809 | 7930 ft | 269 kts | 123° |
| 2026-05-04 10:42 | 42.12259 | 11.93871 | 7806 ft | 245 kts | 124° |
| 2026-05-04 10:42 | 42.11412 | 11.95766 | 7586 ft | 229 kts | 124° |
| 2026-05-04 10:42 | 42.10593 | 11.97583 | 7174 ft | 224 kts | 124° |
| 2026-05-04 10:43 | 42.09810 | 11.99317 | 6981 ft | 208 kts | 124° |
| 2026-05-04 10:44 | 42.04481 | 12.11054 | 4025 ft | 217 kts | 123° |
| 2026-05-04 10:45 | 42.03725 | 12.12731 | 3949 ft | 202 kts | 124° |
| 2026-05-04 10:45 | 42.03070 | 12.14298 | 4071 ft | 190 kts | 116° |
| 2026-05-04 10:45 | 42.02561 | 12.15943 | 3850 ft | 192 kts | 116° |
| 2026-05-04 10:45 | 42.02027 | 12.17560 | 3658 ft | 190 kts | 124° |
| 2026-05-04 10:46 | 42.01140 | 12.18924 | 3390 ft | 196 kts | 145° |
| 2026-05-04 10:46 | 41.99934 | 12.19711 | 3161 ft | 196 kts | 164° |
| 2026-05-04 10:46 | 41.98635 | 12.20255 | 2911 ft | 195 kts | 163° |
| 2026-05-04 10:46 | 41.97331 | 12.20802 | 2648 ft | 189 kts | 163° |
| 2026-05-04 10:47 | 41.96122 | 12.21310 | 2413 ft | 182 kts | 164° |
| 2026-05-04 10:47 | 41.94956 | 12.21801 | 2168 ft | 167 kts | 163° |
| 2026-05-04 10:47 | 41.93902 | 12.22244 | 1955 ft | 150 kts | 163° |
| 2026-05-04 10:47 | 41.92949 | 12.22645 | 1782 ft | 138 kts | 164° |
| 2026-05-04 10:49 | 41.86796 | 12.25226 | 521 ft | 133 kts | 164° |
| 2026-05-04 10:49 | 41.85920 | 12.25593 | 351 ft | 132 kts | 163° |
| 2026-05-04 10:50 | 41.85041 | 12.25972 | 174 ft | 132 kts | 167° |
| 2026-05-04 10:51 | 41.83021 | 12.26600 | 11 ft | 15 kts | 193° |
| 2026-05-04 10:52 | 41.82908 | 12.26570 | 11 ft | 17 kts | 188° |
| 2026-05-04 10:52 | 41.82785 | 12.26586 | 13 ft | 19 kts | 162° |
| 2026-05-04 10:52 | 41.82656 | 12.26641 | 12 ft | 20 kts | 163° |
| 2026-05-04 10:54 | 41.81602 | 12.27081 | 12 ft | 23 kts | 162° |
| 2026-05-04 10:54 | 41.81459 | 12.27141 | 13 ft | 21 kts | 162° |
| 2026-05-04 10:56 | 41.80610 | 12.27055 | 14 ft | 21 kts | 249° |
| 2026-05-04 10:56 | 41.80559 | 12.26876 | 15 ft | 21 kts | 250° |
| 2026-05-04 10:56 | 41.80508 | 12.26691 | 16 ft | 20 kts | 250° |
| 2026-05-04 10:57 | 41.80458 | 12.26508 | 17 ft | 17 kts | 250° |
| 2026-05-04 10:57 | 41.80402 | 12.26373 | 15 ft | 15 kts | 207° |
| 2026-05-04 10:57 | 41.80296 | 12.26395 | 14 ft | 17 kts | 162° |
| 2026-05-04 10:57 | 41.80181 | 12.26386 | 16 ft | 18 kts | 204° |
| 2026-05-04 10:58 | 41.80072 | 12.26317 | 14 ft | 17 kts | 204° |
| 2026-05-04 10:58 | 41.79970 | 12.26255 | 14 ft | 14 kts | 205° |
| 2026-05-04 10:58 | 41.79875 | 12.26196 | 15 ft | 16 kts | 205° |
| 2026-05-04 10:58 | 41.79788 | 12.26142 | 16 ft | 11 kts | 206° |
| 2026-05-04 10:59 | 41.79769 | 12.26052 | 16 ft | 11 kts | 291° |
| 2026-05-04 10:59 | 41.79802 | 12.25964 | 14 ft | 10 kts | 294° |
| 2026-05-04 10:59 | 41.79829 | 12.25885 | 15 ft | 9 kts | 294° |
| 2026-05-04 10:59 | 41.79823 | 12.25842 | 14 ft | 7 kts | 233° |
| 2026-05-04 11:00 | 41.79781 | 12.25809 | 16 ft | 8 kts | 203° |
| 2026-05-04 11:01 | 41.79740 | 12.25865 | 14 ft | 0 kts | 115° |